Aviation Digital Data Service (ADDS)

Output produced by METARs form (0141 UTC 20 April 2014)
found at http://aviationweather.gov/adds/metars/
 
KLBE 192320Z 2000/2024 04005KT P6SM BKN250 
     FM201500 14007KT P6SM SKC AMD NOT SKED 2002/2010